createdAt,value
2023-09-02T00:02:16.475Z,78.21
2023-09-02T00:07:38.217Z,78.65
2023-09-02T00:13:00.088Z,79.84
2023-09-02T00:18:21.836Z,80.42
2023-09-02T00:23:44.067Z,81.02
2023-09-02T00:29:05.844Z,80.29
2023-09-02T00:34:27.746Z,80.41
2023-09-02T00:39:50.371Z,81.82
2023-09-02T00:45:12.548Z,81.32
2023-09-02T00:50:35.712Z,80.92
2023-09-02T00:55:57.470Z,82.14
2023-09-02T01:01:20.084Z,81.88
2023-09-02T01:06:42.866Z,82.00
2023-09-02T01:12:04.852Z,82.19
2023-09-02T01:17:26.594Z,82.76
2023-09-02T01:22:54.546Z,83.75
2023-09-02T01:28:24.436Z,83.85
2023-09-02T01:33:48.987Z,82.60
2023-09-02T01:39:11.135Z,83.84
2023-09-02T01:44:35.442Z,83.39
2023-09-02T01:49:57.786Z,83.63
2023-09-02T01:55:19.884Z,84.31
2023-09-02T02:00:41.732Z,84.96
2023-09-02T02:06:08.465Z,86.14
2023-09-02T02:11:30.962Z,91.14
2023-09-02T02:16:52.676Z,86.67
2023-09-02T02:22:14.456Z,87.12
2023-09-02T02:27:36.237Z,86.98
2023-09-02T02:32:58.058Z,86.92
2023-09-02T02:38:19.940Z,87.76
2023-09-02T02:43:41.726Z,87.68
2023-09-02T02:49:03.489Z,87.79
2023-09-02T02:54:25.294Z,88.60
2023-09-02T02:59:47.081Z,90.20
2023-09-02T03:05:09.024Z,89.99
2023-09-02T03:10:30.778Z,90.07
2023-09-02T03:15:54.640Z,91.11
2023-09-02T03:21:16.430Z,91.31
2023-09-02T03:26:38.150Z,92.17
2023-09-02T03:31:59.915Z,94.50
2023-09-02T03:37:21.697Z,95.85
2023-09-02T03:42:43.481Z,96.34
2023-09-02T03:48:05.693Z,96.81
2023-09-02T03:53:27.945Z,97.32
2023-09-02T03:58:49.760Z,100.00
2023-09-02T04:04:11.625Z,98.92
2023-09-02T04:09:33.378Z,97.89
2023-09-02T04:14:55.072Z,96.30
2023-09-02T04:20:17.330Z,96.20
2023-09-02T04:25:53.021Z,94.37
2023-09-02T04:31:14.774Z,94.19
2023-09-02T04:36:36.514Z,92.95
2023-09-02T04:41:58.261Z,93.31
2023-09-02T04:47:19.969Z,93.37
2023-09-02T04:52:41.713Z,94.60
2023-09-02T04:58:03.583Z,96.10
2023-09-02T05:03:25.358Z,92.89
2023-09-02T05:08:47.116Z,93.09
2023-09-02T05:14:08.842Z,93.87
2023-09-02T05:19:30.589Z,90.73
2023-09-02T05:24:53.178Z,88.70
2023-09-02T05:30:15.003Z,87.21
2023-09-02T05:35:36.733Z,84.87
2023-09-02T05:40:58.492Z,86.17
2023-09-02T05:46:20.292Z,83.11
2023-09-02T05:51:42.237Z,83.26
2023-09-02T05:57:04.281Z,80.84
2023-09-02T06:02:26.064Z,77.98
2023-09-02T06:07:47.891Z,76.36
2023-09-02T06:13:09.625Z,75.21
2023-09-02T06:18:32.896Z,74.73
2023-09-02T06:23:54.666Z,74.25
2023-09-02T06:29:16.429Z,73.17
2023-09-02T06:34:38.220Z,71.27
2023-09-02T06:39:59.942Z,69.51
2023-09-02T06:45:21.639Z,62.54
2023-09-02T06:50:46.255Z,30.25
2023-09-02T06:56:09.441Z,23.55
2023-09-02T07:01:31.221Z,19.02
2023-09-02T07:06:52.954Z,17.04
2023-09-02T07:12:14.682Z,14.83
2023-09-02T07:17:36.411Z,12.41
2023-09-02T07:22:58.203Z,10.83
2023-09-02T07:28:19.946Z,10.88
2023-09-02T07:33:42.453Z,9.85
2023-09-02T07:39:04.569Z,8.65
2023-09-02T07:44:26.332Z,8.81
2023-09-02T07:49:47.990Z,8.05
2023-09-02T07:55:09.769Z,7.53
2023-09-02T08:00:34.413Z,7.86
2023-09-02T08:05:56.215Z,7.80
2023-09-02T08:11:17.956Z,8.32
2023-09-02T08:16:39.703Z,7.58
2023-09-02T08:22:01.774Z,7.24
2023-09-02T08:27:25.836Z,7.18
2023-09-02T08:32:47.610Z,6.93
2023-09-02T08:38:09.375Z,8.38
2023-09-02T08:43:31.972Z,6.97
2023-09-02T08:48:56.316Z,6.74
2023-09-02T08:54:19.451Z,7.26
2023-09-02T08:59:41.140Z,7.21
2023-09-02T09:05:03.954Z,8.35
2023-09-02T09:10:25.994Z,7.53
2023-09-02T09:15:48.103Z,7.62
2023-09-02T09:21:09.806Z,8.23
2023-09-02T09:26:32.651Z,7.83
2023-09-02T09:32:14.433Z,8.32
2023-09-02T09:37:53.819Z,11.33
2023-09-02T09:43:18.066Z,12.76
2023-09-02T09:48:46.909Z,11.82
2023-09-02T09:54:08.729Z,10.21
2023-09-02T09:59:30.609Z,12.55
2023-09-02T10:04:58.431Z,10.96
2023-09-02T10:10:27.734Z,16.47
2023-09-02T10:15:49.942Z,15.27
2023-09-02T10:21:14.510Z,11.11
2023-09-02T10:26:49.463Z,14.00
2023-09-02T10:32:12.339Z,10.49
2023-09-02T10:37:43.241Z,15.37
2023-09-02T10:43:05.046Z,16.17
2023-09-02T10:48:26.824Z,10.74
2023-09-02T10:53:51.321Z,9.68
2023-09-02T10:59:28.691Z,9.36
2023-09-02T11:04:57.495Z,9.52
2023-09-02T11:10:19.558Z,10.89
2023-09-02T11:15:41.346Z,14.55
2023-09-02T11:21:03.188Z,20.62
2023-09-02T11:26:25.057Z,15.88
2023-09-02T11:32:00.193Z,17.05
2023-09-02T11:37:31.731Z,18.92
2023-09-02T11:43:00.620Z,19.45
2023-09-02T11:48:25.364Z,19.40
2023-09-02T11:53:47.528Z,21.25
2023-09-02T11:59:30.844Z,22.94
2023-09-02T12:04:53.177Z,21.14
2023-09-02T12:10:17.097Z,21.17
2023-09-02T12:15:38.960Z,22.59
2023-09-02T12:21:00.751Z,23.70
2023-09-02T12:26:22.538Z,22.12
2023-09-02T12:31:56.609Z,22.14
2023-09-02T12:37:22.700Z,22.65
2023-09-02T12:42:54.462Z,22.39
2023-09-02T12:48:16.393Z,22.47
2023-09-02T12:53:38.749Z,24.39
2023-09-02T12:59:00.552Z,23.02
2023-09-02T13:04:22.405Z,24.41
2023-09-02T13:09:45.388Z,25.33
2023-09-02T13:15:08.716Z,24.14
2023-09-02T13:20:30.463Z,23.43
2023-09-02T13:25:52.241Z,24.07
2023-09-02T13:31:14.906Z,24.81
2023-09-02T13:36:36.718Z,25.98
2023-09-02T13:42:00.787Z,26.65
2023-09-02T13:47:22.651Z,26.98
2023-09-02T13:52:45.466Z,27.65
2023-09-02T13:58:08.638Z,27.95
2023-09-02T14:03:30.678Z,28.26
2023-09-02T14:08:52.543Z,29.62
2023-09-02T14:14:18.453Z,31.02
2023-09-02T14:19:40.219Z,30.84
2023-09-02T14:25:02.113Z,30.82
2023-09-02T14:30:24.099Z,32.43
2023-09-02T14:35:46.072Z,31.86
2023-09-02T14:41:07.811Z,32.49
2023-09-02T14:46:29.675Z,32.45
2023-09-02T14:51:51.568Z,32.76
2023-09-02T14:57:17.582Z,32.85
2023-09-02T15:02:40.945Z,34.74
2023-09-02T15:08:03.853Z,33.73
2023-09-02T15:13:28.263Z,33.43
2023-09-02T15:18:50.058Z,32.66
2023-09-02T15:24:11.782Z,33.05
2023-09-02T15:29:33.548Z,33.77
2023-09-02T15:34:55.349Z,33.45
2023-09-02T15:40:25.185Z,33.52
2023-09-02T15:45:46.972Z,33.75
2023-09-02T15:51:08.793Z,33.97
2023-09-02T15:56:30.500Z,35.03
2023-09-02T16:01:52.364Z,35.14
2023-09-02T16:07:14.121Z,35.42
2023-09-02T16:12:35.878Z,35.69
2023-09-02T16:17:57.795Z,36.42
2023-09-02T16:23:20.886Z,36.35
2023-09-02T16:28:43.526Z,37.24
2023-09-02T16:34:05.349Z,36.54
2023-09-02T16:39:27.428Z,37.31
2023-09-02T16:44:49.168Z,37.89
2023-09-02T16:50:11.991Z,37.92
2023-09-02T16:55:33.868Z,38.81
2023-09-02T17:01:05.279Z,39.19
2023-09-02T17:06:31.862Z,39.63
2023-09-02T17:11:53.691Z,40.69
2023-09-02T17:17:15.504Z,40.56
2023-09-02T17:22:42.050Z,40.87
2023-09-02T17:28:06.493Z,42.18
2023-09-02T17:33:28.236Z,43.23
2023-09-02T17:38:50.033Z,43.75
2023-09-02T17:44:11.792Z,45.21
2023-09-02T17:49:33.541Z,45.73
2023-09-02T17:54:55.328Z,47.24
2023-09-02T18:00:17.368Z,48.45
2023-09-02T18:05:39.143Z,48.46
2023-09-02T18:11:00.916Z,48.41
2023-09-02T18:16:22.792Z,49.38
2023-09-02T18:21:44.582Z,50.16
2023-09-02T18:27:06.948Z,50.82
2023-09-02T18:32:28.832Z,51.79
2023-09-02T18:37:50.622Z,52.38
2023-09-02T18:43:12.401Z,53.29
2023-09-02T18:48:34.114Z,54.68
2023-09-02T18:53:57.842Z,55.27
2023-09-02T18:59:19.714Z,55.69
2023-09-02T19:04:41.610Z,57.77
2023-09-02T19:10:03.633Z,60.57
2023-09-02T19:15:25.384Z,61.16
2023-09-02T19:20:47.279Z,63.16
2023-09-02T19:26:09.912Z,64.64
2023-09-02T19:31:32.027Z,67.09
2023-09-02T19:36:53.881Z,66.90
2023-09-02T19:42:15.577Z,68.45
2023-09-02T19:47:37.347Z,70.46
2023-09-02T19:52:59.122Z,71.67
2023-09-02T19:58:20.996Z,73.05
2023-09-02T20:03:42.869Z,75.00
2023-09-02T20:09:04.750Z,76.14
2023-09-02T20:14:26.577Z,76.10
2023-09-02T20:19:48.369Z,76.00
2023-09-02T20:25:10.104Z,75.45
2023-09-02T20:30:31.831Z,76.76
2023-09-02T20:35:53.644Z,77.96
2023-09-02T20:41:18.489Z,78.52
2023-09-02T20:46:40.222Z,77.66
2023-09-02T20:52:03.799Z,78.18
2023-09-02T20:57:25.715Z,77.69
2023-09-02T21:02:47.556Z,78.69
2023-09-02T21:08:09.818Z,80.14
2023-09-02T21:13:31.689Z,81.15
2023-09-02T21:18:53.549Z,80.99
2023-09-02T21:24:15.357Z,80.28
2023-09-02T21:29:37.133Z,81.41
2023-09-02T21:34:58.898Z,80.74
2023-09-02T21:40:20.662Z,80.83
2023-09-02T21:45:42.811Z,80.61
2023-09-02T21:51:06.859Z,81.62
2023-09-02T21:56:28.681Z,83.19
2023-09-02T22:01:50.500Z,84.15
2023-09-02T22:07:12.362Z,84.06
2023-09-02T22:12:34.143Z,84.39
2023-09-02T22:17:55.914Z,84.16
2023-09-02T22:23:20.265Z,84.42
2023-09-02T22:28:42.242Z,85.48
2023-09-02T22:34:03.958Z,85.27
2023-09-02T22:39:27.579Z,84.76
2023-09-02T22:44:49.420Z,85.80
2023-09-02T22:50:11.292Z,86.90
2023-09-02T22:55:34.247Z,86.53
2023-09-02T23:00:56.002Z,86.61
2023-09-02T23:06:17.749Z,86.11
2023-09-02T23:11:39.508Z,86.64
2023-09-02T23:17:01.306Z,86.17
2023-09-02T23:22:23.345Z,86.63
2023-09-02T23:27:49.110Z,87.85
2023-09-02T23:33:10.817Z,88.71
2023-09-02T23:38:32.570Z,89.63
2023-09-02T23:43:54.318Z,89.42
2023-09-02T23:49:16.108Z,89.65
2023-09-02T23:54:37.854Z,90.45
2023-09-02T23:59:59.568Z,90.39
